Time;durP1;ratioP1;P1;durP2;ratioP2;P2;SDS_P1;SDS_P2;PMS_P1;PMS_P2;Temp;Humidity;BMP_temperature;BMP_pressure;BME280_temperature;BME280_humidity;BME280_pressure;Samples;Min_cycle;Max_cycle;Signal;HPM_P1;HPM_P2
2022/09/18 00:01:45;;;;;;;5.60;2.50;;;;;14.54;95745.20;;;;111041;1249;41757;-59
2022/09/18 00:04:14;;;;;;;6.30;3.10;;;;;14.50;95751.80;;;;111072;1248;41152;-61
2022/09/18 00:06:44;;;;;;;6.50;2.80;;;;;14.50;95733.40;;;;111051;1247;41439;-60
2022/09/18 00:09:14;;;;;;;4.30;2.10;;;;;14.50;95733.80;;;;111033;1248;41438;-61
2022/09/18 00:11:46;;;;;;;3.90;2.00;;;;;14.50;95746.60;;;;111043;1249;41959;-61
2022/09/18 00:14:19;;;;;;;5.70;2.30;;;;;14.44;95754.40;;;;111037;1249;41153;-60
2022/09/18 00:16:49;;;;;;;5.90;2.20;;;;;14.40;95757.00;;;;111080;1249;41261;-59
2022/09/18 00:19:19;;;;;;;2.50;1.60;;;;;14.40;95752.00;;;;111043;1249;41604;-60
2022/09/18 00:21:50;;;;;;;5.50;2.20;;;;;14.40;95754.40;;;;111011;1248;41309;-59
2022/09/18 00:24:21;;;;;;;4.80;2.30;;;;;14.40;95749.40;;;;111015;1248;42311;-60
2022/09/18 00:26:50;;;;;;;9.20;2.40;;;;;14.34;95749.60;;;;111042;1249;41153;-59
2022/09/18 00:29:21;;;;;;;4.40;2.00;;;;;14.30;95757.60;;;;111018;1247;41259;-60
2022/09/18 00:31:51;;;;;;;3.30;1.80;;;;;14.30;95757.00;;;;110731;1249;42391;-60
2022/09/18 00:34:21;;;;;;;3.60;1.80;;;;;14.30;95755.60;;;;111056;1249;41156;-60
2022/09/18 00:36:51;;;;;;;4.40;1.90;;;;;14.30;95753.20;;;;110944;1249;41469;-60
2022/09/18 00:39:20;;;;;;;3.50;1.80;;;;;14.30;95759.00;;;;110994;1249;41140;-59
2022/09/18 00:41:51;;;;;;;3.70;1.90;;;;;14.30;95753.80;;;;110963;1249;41952;-59
2022/09/18 00:44:43;;;;;;;3.90;1.70;;;;;14.30;95745.20;;;;111018;1248;41273;-59
2022/09/18 00:47:25;;;;;;;3.80;1.60;;;;;14.30;95737.00;;;;110883;1250;42006;-60
2022/09/18 00:50:03;;;;;;;2.60;1.60;;;;;14.30;95746.40;;;;110805;1249;42109;-59
2022/09/18 00:52:52;;;;;;;2.80;1.50;;;;;14.30;95755.00;;;;110985;1251;41146;-59
2022/09/18 00:55:26;;;;;;;2.10;1.30;;;;;14.22;95760.00;;;;111009;1248;42264;-59
2022/09/18 00:57:58;;;;;;;1.30;1.20;;;;;14.22;95748.80;;;;111029;1249;41192;-59
2022/09/18 01:00:31;;;;;;;1.30;1.10;;;;;14.20;95755.40;;;;111035;1248;41252;-59
2022/09/18 01:03:01;;;;;;;2.70;1.40;;;;;14.20;95757.00;;;;111041;1248;41143;-60
2022/09/18 01:05:52;;;;;;;2.20;1.20;;;;;14.20;95751.60;;;;111090;1247;41350;-60
2022/09/18 01:08:44;;;;;;;1.20;1.10;;;;;14.12;95745.60;;;;111033;1249;41175;-59
2022/09/18 01:11:34;;;;;;;1.20;1.00;;;;;14.10;95750.60;;;;111011;1248;41584;-60
2022/09/18 01:14:21;;;;;;;1.70;1.20;;;;;14.10;95763.00;;;;110759;1249;42303;-59
2022/09/18 01:17:02;;;;;;;3.20;1.10;;;;;14.00;95769.80;;;;111068;1249;41254;-59
2022/09/18 01:19:44;;;;;;;1.10;1.10;;;;;14.00;95771.00;;;;111080;1249;41296;-60
2022/09/18 01:22:33;;;;;;;1.10;1.10;;;;;13.98;95771.40;;;;110949;1249;41170;-61
2022/09/18 01:25:51;;;;;;;1.30;1.20;;;;;13.90;95759.20;;;;111110;1247;41381;-60
2022/09/18 01:28:51;;;;;;;1.80;1.30;;;;;13.90;95774.80;;;;110265;1254;41157;-59
2022/09/18 01:32:01;;;;;;;1.10;1.10;;;;;13.80;95777.40;;;;110931;1248;41861;-60
2022/09/18 01:34:55;;;;;;;1.10;1.00;;;;;13.78;95777.20;;;;111026;1249;41256;-59
2022/09/18 01:37:32;;;;;;;1.20;1.10;;;;;13.70;95779.00;;;;111071;1249;41150;-59
2022/09/18 01:40:20;;;;;;;1.50;1.10;;;;;13.60;95794.80;;;;111032;1249;41488;-58
2022/09/18 01:42:54;;;;;;;1.00;1.00;;;;;13.58;95801.40;;;;111055;1249;42730;-58
2022/09/18 01:45:29;;;;;;;1.10;1.10;;;;;13.50;95804.00;;;;110674;1250;41156;-58
2022/09/18 01:48:06;;;;;;;1.10;1.10;;;;;13.42;95796.00;;;;111023;1247;41135;-58
2022/09/18 01:50:44;;;;;;;1.20;1.10;;;;;13.40;95801.20;;;;110989;1250;42084;-58
2022/09/18 01:53:20;;;;;;;0.90;0.90;;;;;13.30;95803.60;;;;111030;1249;42540;-58
2022/09/18 01:56:02;;;;;;;1.00;1.00;;;;;13.20;95822.80;;;;109560;1249;1928848;-58
2022/09/18 01:58:34;;;;;;;0.90;0.90;;;;;13.20;95830.20;;;;110634;1249;41167;-59
2022/09/18 02:01:12;;;;;;;1.10;1.10;;;;;13.10;95836.60;;;;110987;1249;41261;-59
2022/09/18 02:03:49;;;;;;;1.80;0.90;;;;;13.00;95841.00;;;;111074;1249;41146;-59
2022/09/18 02:06:25;;;;;;;0.90;0.90;;;;;13.00;95839.40;;;;110697;1249;41146;-61
2022/09/18 02:08:56;;;;;;;0.90;0.90;;;;;12.90;95846.60;;;;110694;1249;41389;-60
2022/09/18 02:11:27;;;;;;;1.00;1.00;;;;;12.82;95848.80;;;;110986;1250;41143;-59
2022/09/18 02:14:07;;;;;;;1.10;0.90;;;;;12.80;95851.80;;;;111018;1249;41601;-59
2022/09/18 02:17:06;;;;;;;0.90;0.90;;;;;12.80;95852.20;;;;111034;1249;41267;-60
2022/09/18 02:19:42;;;;;;;0.80;0.80;;;;;12.60;95861.60;;;;111028;1248;41162;-60
2022/09/18 02:22:17;;;;;;;0.90;0.90;;;;;12.50;95869.00;;;;111065;1249;41147;-60
2022/09/18 02:24:50;;;;;;;0.90;0.90;;;;;12.40;95885.00;;;;110962;1249;41252;-60
2022/09/18 02:27:20;;;;;;;1.00;1.00;;;;;12.40;95889.80;;;;110642;1249;41445;-59
2022/09/18 02:29:51;;;;;;;1.00;1.00;;;;;12.30;95889.20;;;;110935;1249;41131;-59
2022/09/18 02:32:21;;;;;;;1.00;1.00;;;;;12.30;95887.80;;;;110709;1249;41173;-59
2022/09/18 02:34:51;;;;;;;1.30;1.00;;;;;12.30;95887.00;;;;111054;1249;41602;-59
2022/09/18 02:37:40;;;;;;;1.10;1.00;;;;;12.30;95891.40;;;;111038;1247;41248;-59
2022/09/18 02:40:24;;;;;;;1.00;1.00;;;;;12.30;95908.60;;;;110863;1249;41271;-60
2022/09/18 02:43:07;;;;;;;2.40;1.10;;;;;12.30;95911.20;;;;110770;1249;41156;-59
2022/09/18 02:45:55;;;;;;;1.00;1.00;;;;;12.30;95915.80;;;;110844;1249;41135;-59
2022/09/18 02:48:45;;;;;;;1.00;1.00;;;;;12.22;95924.00;;;;110823;1250;41143;-59
2022/09/18 02:51:53;;;;;;;1.20;1.00;;;;;12.28;95923.80;;;;111053;1250;41143;-59
2022/09/18 02:54:32;;;;;;;1.10;1.10;;;;;12.20;95932.80;;;;110614;1249;41605;-59
2022/09/18 02:57:26;;;;;;;1.30;1.00;;;;;12.20;95934.40;;;;111024;1248;41258;-59
2022/09/18 02:59:58;;;;;;;1.00;1.00;;;;;12.20;95933.80;;;;110978;1248;42103;-59
2022/09/18 03:02:29;;;;;;;1.10;1.10;;;;;12.20;95933.80;;;;110829;1249;41264;-60
2022/09/18 03:04:59;;;;;;;1.20;1.10;;;;;12.16;95934.80;;;;110804;1249;41606;-59
2022/09/18 03:07:45;;;;;;;3.10;0.90;;;;;12.14;95948.20;;;;111057;1249;41835;-61
2022/09/18 03:10:15;;;;;;;2.10;1.20;;;;;12.16;95953.20;;;;111080;1249;41148;-59
2022/09/18 03:12:46;;;;;;;1.40;1.10;;;;;12.16;95955.60;;;;111072;1249;41413;-60
2022/09/18 03:15:17;;;;;;;2.70;1.10;;;;;12.20;95955.80;;;;111048;1248;41154;-60
2022/09/18 03:17:47;;;;;;;1.10;1.10;;;;;12.20;95957.60;;;;111053;1250;41997;-60
2022/09/18 03:20:17;;;;;;;1.10;1.10;;;;;12.20;95959.60;;;;110823;1249;41133;-60
2022/09/18 03:22:48;;;;;;;1.40;1.00;;;;;12.20;95966.00;;;;110959;1249;41169;-60
2022/09/18 03:25:18;;;;;;;1.30;1.10;;;;;12.20;95975.80;;;;110975;1249;41334;-60
2022/09/18 03:27:47;;;;;;;1.00;1.00;;;;;12.20;95986.40;;;;111067;1249;42381;-60
2022/09/18 03:30:27;;;;;;;1.00;1.00;;;;;12.30;95987.00;;;;111011;1249;41251;-59
2022/09/18 03:32:58;;;;;;;2.80;1.30;;;;;12.20;95994.80;;;;110967;1249;41258;-60
2022/09/18 03:35:28;;;;;;;;;;;;;12.22;95998.60;;;;111065;1249;42502;-60
2022/09/18 03:37:58;;;;;;;1.50;1.30;;;;;12.20;95997.00;;;;111039;1249;42035;-59
2022/09/18 03:40:32;;;;;;;1.10;1.10;;;;;12.20;96006.00;;;;111054;1249;42497;-59
2022/09/18 03:43:07;;;;;;;2.60;1.20;;;;;12.10;96002.40;;;;111076;1249;41512;-60
2022/09/18 03:45:38;;;;;;;1.30;1.20;;;;;12.00;96015.20;;;;110938;1249;41123;-60
2022/09/18 03:48:08;;;;;;;1.80;1.30;;;;;11.98;96016.40;;;;111044;1249;41209;-60
2022/09/18 03:50:39;;;;;;;1.30;1.20;;;;;11.90;96025.20;;;;111046;1249;41259;-60
2022/09/18 03:53:10;;;;;;;1.30;1.20;;;;;11.80;96028.80;;;;110841;1249;41718;-60
2022/09/18 03:55:58;;;;;;;1.20;1.20;;;;;11.80;96036.60;;;;111038;1249;41724;-60
2022/09/18 03:58:47;;;;;;;2.10;1.30;;;;;11.70;96042.80;;;;111015;1249;41142;-60
2022/09/18 04:01:47;;;;;;;2.10;1.20;;;;;11.68;96051.20;;;;110654;1248;41267;-60
2022/09/18 04:04:29;;;;;;;1.80;1.40;;;;;11.52;96053.80;;;;111143;1249;41766;-60
2022/09/18 04:07:19;;;;;;;1.90;1.40;;;;;11.50;96054.40;;;;111003;1249;41975;-60
2022/09/18 04:10:01;;;;;;;2.20;1.50;;;;;11.46;96062.00;;;;111042;1249;41274;-59
2022/09/18 04:12:31;;;;;;;2.00;1.40;;;;;11.40;96067.00;;;;111021;1247;42934;-60
2022/09/18 04:15:18;;;;;;;3.30;1.60;;;;;11.30;96074.20;;;;111161;1249;41155;-59
2022/09/18 04:17:49;;;;;;;3.50;1.70;;;;;11.30;96076.60;;;;111095;1249;41378;-60
2022/09/18 04:20:18;;;;;;;2.00;1.40;;;;;11.30;96085.80;;;;111140;1247;41139;-63
2022/09/18 04:22:50;;;;;;;;;;;;;11.30;96088.00;;;;111040;1249;41185;-61
2022/09/18 04:25:21;;;;;;;3.00;1.60;;;;;11.20;96092.80;;;;111030;1249;41270;-59
2022/09/18 04:27:51;;;;;;;2.40;1.50;;;;;11.20;96098.60;;;;111048;1249;41193;-59
2022/09/18 04:30:21;;;;;;;2.20;1.40;;;;;11.10;96104.40;;;;110983;1249;41274;-59
2022/09/18 04:32:51;;;;;;;2.00;1.30;;;;;11.10;96109.80;;;;111040;1249;41216;-59
2022/09/18 04:35:22;;;;;;;1.90;1.30;;;;;11.10;96122.00;;;;111070;1250;41461;-59
2022/09/18 04:37:52;;;;;;;1.80;1.30;;;;;11.04;96125.00;;;;111021;1250;41181;-60
2022/09/18 04:40:21;;;;;;;2.00;1.40;;;;;11.02;96122.40;;;;111055;1249;41716;-60
2022/09/18 04:42:51;;;;;;;2.30;1.50;;;;;10.98;96134.80;;;;110980;1249;41312;-59
2022/09/18 04:45:21;;;;;;;3.10;1.20;;;;;10.90;96138.40;;;;111032;1249;41234;-60
2022/09/18 04:47:51;;;;;;;1.60;1.40;;;;;10.90;96134.40;;;;111057;1249;41613;-60
2022/09/18 04:50:22;;;;;;;1.40;1.30;;;;;10.84;96143.00;;;;111007;1249;41135;-60
2022/09/18 04:53:13;;;;;;;1.40;1.30;;;;;10.80;96149.20;;;;110831;1247;41187;-60
2022/09/18 04:55:43;;;;;;;1.30;1.20;;;;;10.80;96160.00;;;;111043;1250;41157;-60
2022/09/18 04:58:13;;;;;;;1.60;1.20;;;;;10.80;96172.00;;;;110766;1249;41273;-60
2022/09/18 05:00:44;;;;;;;2.00;1.30;;;;;10.80;96166.40;;;;111039;1249;41442;-60
2022/09/18 05:03:13;;;;;;;1.60;1.20;;;;;10.80;96165.80;;;;110594;1250;42255;-60
2022/09/18 05:05:42;;;;;;;1.30;1.20;;;;;10.80;96174.00;;;;110743;1250;41156;-60
2022/09/18 05:08:12;;;;;;;1.40;1.30;;;;;10.78;96181.20;;;;110666;1250;41156;-58
2022/09/18 05:10:42;;;;;;;1.80;1.30;;;;;10.74;96186.80;;;;110927;1250;41218;-60
2022/09/18 05:13:12;;;;;;;1.30;1.20;;;;;10.78;96189.40;;;;110770;1250;41184;-58
2022/09/18 05:15:54;;;;;;;1.50;1.20;;;;;10.76;96193.40;;;;110751;1249;41145;-60
2022/09/18 05:18:23;;;;;;;1.70;1.20;;;;;10.74;96201.80;;;;110915;1250;41703;-58
2022/09/18 05:20:54;;;;;;;;;;;;;10.76;96207.80;;;;110992;1247;41715;-59
2022/09/18 05:23:23;;;;;;;1.90;1.30;;;;;10.80;96215.80;;;;111054;1248;41157;-59
2022/09/18 05:25:52;;;;;;;2.30;1.40;;;;;10.80;96219.00;;;;110986;1249;42377;-59
2022/09/18 05:28:21;;;;;;;2.10;1.30;;;;;10.80;96223.40;;;;110798;1249;41588;-61
2022/09/18 05:30:51;;;;;;;2.50;1.30;;;;;10.80;96220.40;;;;111051;1249;42385;-59
2022/09/18 05:33:20;;;;;;;1.30;1.20;;;;;10.90;96227.60;;;;111157;1249;41151;-61
2022/09/18 05:35:52;;;;;;;1.30;1.20;;;;;10.94;96223.20;;;;111127;1249;41151;-60
2022/09/18 05:38:22;;;;;;;1.90;1.20;;;;;11.00;96225.40;;;;110973;1250;42562;-60
2022/09/18 05:40:52;;;;;;;1.40;1.30;;;;;11.10;96231.60;;;;110707;1250;41248;-59
2022/09/18 05:43:21;;;;;;;2.00;1.20;;;;;11.12;96230.60;;;;111101;1249;42576;-59
2022/09/18 05:45:49;;;;;;;1.40;1.20;;;;;11.20;96229.00;;;;111028;1249;41606;-58
2022/09/18 05:48:26;;;;;;;2.10;1.30;;;;;11.30;96240.20;;;;110978;1249;41258;-59
2022/09/18 05:50:55;;;;;;;1.50;1.10;;;;;11.30;96240.80;;;;111053;1249;41218;-59
2022/09/18 05:53:26;;;;;;;1.90;1.30;;;;;11.30;96241.40;;;;111104;1247;41159;-60
2022/09/18 05:56:21;;;;;;;1.80;1.10;;;;;11.20;96247.80;;;;110876;1250;42130;-59
2022/09/18 05:58:50;;;;;;;3.00;1.40;;;;;11.20;96254.40;;;;110986;1250;41156;-59
2022/09/18 06:01:18;;;;;;;1.30;1.10;;;;;11.14;96259.40;;;;110983;1248;41938;-60
2022/09/18 06:04:01;;;;;;;1.10;1.10;;;;;11.10;96262.60;;;;111009;1250;41608;-59
2022/09/18 06:06:39;;;;;;;1.10;1.10;;;;;11.10;96264.20;;;;111051;1249;41603;-60
2022/09/18 06:09:09;;;;;;;1.30;1.20;;;;;11.00;96260.60;;;;111057;1250;41265;-59
2022/09/18 06:11:38;;;;;;;1.10;1.00;;;;;11.00;96277.80;;;;110993;1250;41408;-59
2022/09/18 06:14:07;;;;;;;1.30;1.20;;;;;11.02;96286.80;;;;110975;1250;41446;-59
2022/09/18 06:16:37;;;;;;;;;;;;;11.10;96292.80;;;;111026;1249;41258;-59
2022/09/18 06:19:09;;;;;;;1.20;1.10;;;;;11.00;96290.80;;;;111141;1250;41244;-59
2022/09/18 06:21:40;;;;;;;2.00;1.10;;;;;11.04;96295.60;;;;110846;1250;42383;-59
2022/09/18 06:24:10;;;;;;;1.20;1.10;;;;;11.00;96291.80;;;;111161;1248;41253;-58
2022/09/18 06:26:48;;;;;;;1.10;1.10;;;;;11.02;96301.00;;;;110963;1248;41130;-59
2022/09/18 06:29:17;;;;;;;1.30;1.10;;;;;11.10;96290.60;;;;111045;1250;41262;-59
2022/09/18 06:31:49;;;;;;;2.40;1.20;;;;;11.10;96304.20;;;;111094;1249;42066;-60
2022/09/18 06:34:21;;;;;;;1.90;1.30;;;;;11.14;96304.80;;;;110894;1249;41216;-61
2022/09/18 06:36:50;;;;;;;1.10;1.10;;;;;11.20;96306.40;;;;111033;1249;41629;-59
2022/09/18 06:39:25;;;;;;;1.00;1.00;;;;;11.30;96312.80;;;;111006;1249;41832;-59
2022/09/18 06:41:59;;;;;;;1.30;1.20;;;;;11.30;96323.80;;;;111192;1249;41074;-60
2022/09/18 06:44:46;;;;;;;1.20;1.10;;;;;11.30;96335.40;;;;111082;1250;41026;-60
2022/09/18 06:47:16;;;;;;;2.20;1.10;;;;;11.30;96334.40;;;;111071;1249;41244;-59
2022/09/18 06:49:46;;;;;;;1.30;1.20;;;;;11.38;96334.20;;;;111009;1249;41939;-59
2022/09/18 06:52:17;;;;;;;1.20;1.10;;;;;11.40;96339.40;;;;111159;1249;41723;-59
2022/09/18 06:54:46;;;;;;;1.30;1.10;;;;;11.48;96348.80;;;;110963;1250;41977;-60
2022/09/18 06:57:30;;;;;;;1.10;1.10;;;;;11.56;96354.20;;;;110837;1250;41267;-60
2022/09/18 06:59:58;;;;;;;1.10;1.10;;;;;11.50;96358.20;;;;111008;1249;41702;-60
2022/09/18 07:02:28;;;;;;;2.50;1.20;;;;;11.56;96365.20;;;;111109;1248;41252;-60
2022/09/18 07:05:19;;;;;;;1.20;1.10;;;;;11.60;96369.20;;;;110797;1250;41973;-59
2022/09/18 07:07:48;;;;;;;1.10;1.10;;;;;11.60;96381.80;;;;111004;1249;41204;-60
2022/09/18 07:10:17;;;;;;;1.10;1.00;;;;;11.60;96381.40;;;;110912;1250;41701;-59
2022/09/18 07:12:50;;;;;;;1.60;1.10;;;;;11.60;96381.60;;;;111054;1250;41189;-60
2022/09/18 07:15:19;;;;;;;1.00;1.00;;;;;11.60;96386.60;;;;110979;1250;41155;-59
2022/09/18 07:17:47;;;;;;;1.00;1.00;;;;;11.60;96385.40;;;;110813;1250;41134;-60
2022/09/18 07:20:17;;;;;;;1.20;1.10;;;;;11.62;96393.40;;;;111014;1250;41812;-61
2022/09/18 07:22:54;;;;;;;1.10;1.10;;;;;11.74;96390.80;;;;111029;1249;41187;-61
2022/09/18 07:25:28;;;;;;;1.10;1.10;;;;;11.80;96395.80;;;;111104;1250;41658;-60
2022/09/18 07:28:06;;;;;;;1.30;1.10;;;;;11.90;96400.60;;;;111008;1250;41157;-59
2022/09/18 07:30:40;;;;;;;1.10;1.10;;;;;11.90;96396.60;;;;110987;1249;41262;-59
2022/09/18 07:33:09;;;;;;;1.10;1.10;;;;;11.94;96406.00;;;;111053;1250;42100;-59
2022/09/18 07:35:43;;;;;;;1.40;1.10;;;;;12.06;96405.80;;;;110991;1248;42571;-58
2022/09/18 07:38:13;;;;;;;3.50;1.10;;;;;12.10;96413.60;;;;110739;1250;42497;-61
2022/09/18 07:40:51;;;;;;;2.60;1.10;;;;;12.20;96417.40;;;;110873;1250;41510;-60
2022/09/18 07:43:29;;;;;;;1.30;1.20;;;;;12.10;96417.40;;;;111025;1248;41445;-58
2022/09/18 07:45:59;;;;;;;1.10;1.10;;;;;12.10;96425.00;;;;110850;1250;42335;-60
2022/09/18 07:48:29;;;;;;;1.10;1.10;;;;;12.10;96420.80;;;;111034;1249;41142;-59
2022/09/18 07:51:06;;;;;;;2.20;1.30;;;;;12.10;96429.80;;;;111020;1250;41150;-59
2022/09/18 07:53:36;;;;;;;1.30;1.10;;;;;12.08;96431.80;;;;111033;1248;41156;-59
2022/09/18 07:56:09;;;;;;;1.30;1.20;;;;;12.02;96433.20;;;;110798;1251;41146;-59
2022/09/18 07:58:38;;;;;;;1.30;1.20;;;;;12.00;96436.80;;;;110714;1251;41138;-59
2022/09/18 08:01:20;;;;;;;1.30;1.20;;;;;12.10;96429.60;;;;110864;1250;41127;-60
2022/09/18 08:03:53;;;;;;;1.40;1.30;;;;;12.10;96436.60;;;;111042;1250;41726;-59
2022/09/18 08:06:22;;;;;;;1.20;1.10;;;;;12.10;96438.40;;;;110979;1250;41267;-59
2022/09/18 08:09:00;;;;;;;1.60;1.20;;;;;12.20;96437.80;;;;111028;1247;42071;-59
2022/09/18 08:11:55;;;;;;;1.10;1.10;;;;;12.40;96438.00;;;;111019;1250;41144;-60
2022/09/18 08:14:41;;;;;;;2.60;1.20;;;;;12.50;96439.40;;;;111010;1250;41910;-60
2022/09/18 08:17:25;;;;;;;1.10;1.10;;;;;12.72;96439.00;;;;111077;1250;41306;-61
2022/09/18 08:20:07;;;;;;;1.40;1.20;;;;;13.00;96434.20;;;;111054;1250;41482;-60
2022/09/18 08:22:50;;;;;;;1.50;1.10;;;;;13.10;96436.80;;;;111039;1248;41176;-60
2022/09/18 08:25:22;;;;;;;1.50;1.20;;;;;13.10;96435.00;;;;111034;1247;41151;-57
2022/09/18 08:27:51;;;;;;;2.00;1.30;;;;;13.20;96441.60;;;;110790;1249;41610;-58
2022/09/18 08:30:34;;;;;;;1.60;1.30;;;;;13.02;96431.00;;;;110822;1251;41155;-58
2022/09/18 08:33:07;;;;;;;1.40;1.20;;;;;12.90;96434.20;;;;110960;1249;41139;-59
2022/09/18 08:35:36;;;;;;;;;;;;;12.90;96434.00;;;;111005;1250;41963;-58
2022/09/18 08:38:22;;;;;;;1.60;1.10;;;;;13.12;96440.80;;;;110981;1250;41156;-58
2022/09/18 08:41:58;;;;;;;1.60;1.20;;;;;13.40;96444.40;;;;110722;1249;41163;-59
2022/09/18 08:44:46;;;;;;;1.70;1.30;;;;;13.44;96438.20;;;;110775;1250;41151;-60
2022/09/18 08:47:31;;;;;;;1.20;1.10;;;;;13.40;96441.80;;;;111034;1248;41148;-61
2022/09/18 08:50:11;;;;;;;1.40;1.30;;;;;13.32;96442.00;;;;110849;1248;41552;-60
2022/09/18 08:52:43;;;;;;;1.70;1.30;;;;;13.40;96441.00;;;;110887;1250;41138;-60
2022/09/18 08:55:32;;;;;;;1.80;1.10;;;;;13.30;96446.80;;;;111009;1250;41363;-59
2022/09/18 08:58:30;;;;;;;1.50;1.30;;;;;13.00;96442.60;;;;110981;1249;41129;-59
2022/09/18 09:01:05;;;;;;;1.80;1.30;;;;;13.00;96445.20;;;;111034;1249;41257;-59
2022/09/18 09:04:20;;;;;;;1.20;1.10;;;;;13.10;96438.00;;;;110925;1248;41298;-59
2022/09/18 09:07:01;;;;;;;1.30;1.10;;;;;13.40;96439.00;;;;110216;1254;41269;-60
2022/09/18 09:09:56;;;;;;;1.30;1.10;;;;;13.50;96442.20;;;;110297;1256;41161;-60
2022/09/18 09:12:58;;;;;;;2.20;1.30;;;;;13.50;96453.20;;;;110866;1248;41354;-60
2022/09/18 09:15:37;;;;;;;1.50;1.20;;;;;13.50;96452.00;;;;110701;1250;41257;-59
2022/09/18 09:18:16;;;;;;;1.30;1.20;;;;;13.50;96457.60;;;;110862;1250;41606;-59
2022/09/18 09:20:52;;;;;;;1.70;1.20;;;;;13.50;96466.60;;;;110775;1250;41979;-59
2022/09/18 09:23:49;;;;;;;3.10;1.30;;;;;13.60;96467.20;;;;110973;1250;41918;-59
2022/09/18 09:26:38;;;;;;;1.20;1.10;;;;;13.70;96467.60;;;;110864;1251;41168;-60
2022/09/18 09:29:50;;;;;;;2.00;1.30;;;;;13.70;96470.20;;;;110848;1250;41203;-59
2022/09/18 09:32:55;;;;;;;1.70;1.10;;;;;13.70;96472.80;;;;110785;1250;41270;-59
2022/09/18 09:35:49;;;;;;;2.70;1.20;;;;;13.70;96472.00;;;;111018;1249;41206;-60
2022/09/18 09:38:46;;;;;;;2.20;1.30;;;;;13.72;96471.80;;;;110978;1250;41170;-59
2022/09/18 09:41:18;;;;;;;1.30;1.20;;;;;13.90;96468.00;;;;111006;1248;41733;-59
2022/09/18 09:44:05;;;;;;;2.30;1.40;;;;;14.10;96473.00;;;;111019;1247;41149;-59
2022/09/18 09:47:17;;;;;;;2.40;1.40;;;;;14.32;96476.80;;;;110969;1251;41142;-61
2022/09/18 09:50:24;;;;;;;1.60;1.30;;;;;14.40;96481.20;;;;111009;1250;41150;-60
2022/09/18 09:52:56;;;;;;;1.80;1.40;;;;;14.30;96487.20;;;;110882;1250;41247;-60
2022/09/18 09:55:32;;;;;;;3.30;1.30;;;;;14.24;96498.80;;;;111058;1247;41165;-59
2022/09/18 09:58:10;;;;;;;3.00;1.70;;;;;14.20;96514.80;;;;110846;1250;41516;-60
2022/09/18 10:01:27;;;;;;;1.70;1.40;;;;;14.10;96517.00;;;;110717;1251;41802;-59
2022/09/18 10:04:16;;;;;;;2.20;1.40;;;;;13.92;96513.20;;;;110753;1251;42078;-59
2022/09/18 10:07:06;;;;;;;5.30;1.50;;;;;13.96;96515.80;;;;110805;1250;41740;-59
2022/09/18 10:09:47;;;;;;;2.50;1.30;;;;;14.32;96508.20;;;;110717;1251;41554;-59
2022/09/18 10:12:51;;;;;;;2.40;1.40;;;;;14.70;96505.40;;;;110775;1250;41344;-59
2022/09/18 10:15:23;;;;;;;1.40;1.20;;;;;15.50;96516.80;;;;110780;1250;41254;-60
2022/09/18 10:17:56;;;;;;;1.60;1.30;;;;;15.80;96527.60;;;;110802;1251;41784;-60
2022/09/18 10:20:27;;;;;;;3.70;1.40;;;;;15.90;96545.40;;;;110994;1250;41138;-61
2022/09/18 10:23:13;;;;;;;1.60;1.30;;;;;15.70;96547.40;;;;110787;1251;41549;-59
2022/09/18 10:25:48;;;;;;;1.60;1.40;;;;;15.60;96527.40;;;;111004;1251;41359;-60
2022/09/18 10:28:17;;;;;;;1.80;1.20;;;;;15.40;96544.00;;;;110846;1250;41249;-60
2022/09/18 10:31:10;;;;;;;1.80;1.10;;;;;15.14;96560.40;;;;111060;1247;41931;-60
2022/09/18 10:33:47;;;;;;;1.50;1.10;;;;;14.92;96556.20;;;;111027;1248;41601;-59
2022/09/18 10:36:37;;;;;;;1.80;1.30;;;;;14.88;96554.20;;;;110974;1249;41605;-59
2022/09/18 10:39:26;;;;;;;2.60;1.40;;;;;14.80;96547.60;;;;111023;1249;41165;-59
2022/09/18 10:42:04;;;;;;;1.30;1.20;;;;;15.16;96547.60;;;;111043;1248;41434;-60
2022/09/18 10:44:36;;;;;;;2.90;1.40;;;;;16.10;96539.40;;;;110957;1251;41198;-60
2022/09/18 10:47:20;;;;;;;1.90;1.20;;;;;17.42;96531.40;;;;110890;1249;41387;-60
2022/09/18 10:50:05;;;;;;;1.20;1.10;;;;;18.66;96520.80;;;;110918;1250;41262;-60
2022/09/18 10:52:36;;;;;;;1.70;1.20;;;;;19.82;96525.20;;;;110971;1248;41392;-60
2022/09/18 10:55:11;;;;;;;1.10;1.10;;;;;20.02;96533.80;;;;110808;1248;41158;-60
2022/09/18 10:58:01;;;;;;;1.70;1.30;;;;;19.18;96538.40;;;;110899;1250;41170;-62
2022/09/18 11:00:33;;;;;;;1.00;1.00;;;;;18.70;96533.20;;;;111069;1248;41575;-61
2022/09/18 11:03:22;;;;;;;1.70;1.20;;;;;18.60;96541.00;;;;110854;1250;41259;-60
2022/09/18 11:05:56;;;;;;;1.20;1.10;;;;;18.82;96542.60;;;;111054;1250;42397;-60
2022/09/18 11:08:29;;;;;;;2.20;1.10;;;;;18.64;96547.40;;;;111047;1247;41280;-60
2022/09/18 11:11:02;;;;;;;1.60;1.00;;;;;19.10;96549.00;;;;110993;1248;41607;-60
2022/09/18 11:13:48;;;;;;;0.90;0.90;;;;;18.80;96558.80;;;;110967;1250;41586;-60
2022/09/18 11:16:24;;;;;;;1.20;1.10;;;;;18.14;96558.80;;;;110824;1247;41015;-60
2022/09/18 11:19:11;;;;;;;1.10;1.00;;;;;17.78;96570.20;;;;111087;1247;41246;-60
2022/09/18 11:21:49;;;;;;;1.00;1.00;;;;;17.82;96572.20;;;;110702;1249;41148;-60
2022/09/18 11:24:33;;;;;;;1.90;0.90;;;;;18.76;96562.60;;;;110845;1249;41284;-60
2022/09/18 11:27:20;;;;;;;2.30;1.00;;;;;20.00;96564.60;;;;110715;1250;41499;-60
2022/09/18 11:29:50;;;;;;;1.70;1.00;;;;;20.60;96568.00;;;;110670;1249;41144;-60
2022/09/18 11:32:28;;;;;;;1.40;1.30;;;;;20.14;96566.00;;;;111009;1248;41599;-58
2022/09/18 11:35:04;;;;;;;1.60;1.10;;;;;19.88;96579.80;;;;110991;1248;41261;-59
2022/09/18 11:37:42;;;;;;;3.70;1.10;;;;;20.06;96575.20;;;;110721;1250;41573;-61
2022/09/18 11:40:20;;;;;;;1.50;1.10;;;;;21.12;96578.20;;;;111009;1248;41908;-60
2022/09/18 11:42:52;;;;;;;1.20;1.00;;;;;20.40;96590.80;;;;110989;1249;41167;-60
2022/09/18 11:45:53;;;;;;;2.90;1.00;;;;;19.96;96593.00;;;;110965;1249;41659;-60
2022/09/18 11:48:37;;;;;;;1.30;1.10;;;;;19.74;96601.20;;;;110858;1249;42423;-60
2022/09/18 11:51:14;;;;;;;2.30;1.10;;;;;18.98;96603.40;;;;110710;1250;41269;-60
2022/09/18 11:53:50;;;;;;;2.10;1.20;;;;;18.40;96616.80;;;;110696;1250;41209;-60
2022/09/18 11:56:47;;;;;;;1.30;1.00;;;;;17.92;96625.00;;;;111036;1249;41354;-59
2022/09/18 11:59:55;;;;;;;1.00;1.00;;;;;17.80;96614.40;;;;110915;1248;41142;-60
2022/09/18 12:02:59;;;;;;;1.40;1.10;;;;;18.10;96629.20;;;;110970;1248;42006;-60
2022/09/18 12:05:52;;;;;;;1.60;1.10;;;;;18.10;96627.80;;;;110784;1247;41158;-62
2022/09/18 12:08:42;;;;;;;1.50;1.00;;;;;18.10;96644.60;;;;110827;1250;41671;-60
2022/09/18 12:11:13;;;;;;;1.90;1.00;;;;;17.90;96636.40;;;;111012;1248;42560;-60
2022/09/18 12:13:49;;;;;;;2.10;1.20;;;;;17.60;96634.40;;;;111034;1248;41174;-60
2022/09/18 12:16:24;;;;;;;1.10;1.10;;;;;17.40;96644.40;;;;110812;1250;42140;-59
2022/09/18 12:19:07;;;;;;;1.20;1.00;;;;;17.58;96648.20;;;;110760;1250;41144;-60
2022/09/18 12:22:02;;;;;;;2.10;1.10;;;;;17.60;96651.00;;;;110886;1249;41133;-61
2022/09/18 12:24:31;;;;;;;1.40;1.00;;;;;17.56;96652.80;;;;110825;1251;41198;-61
2022/09/18 12:27:03;;;;;;;3.70;1.30;;;;;18.60;96645.20;;;;111063;1250;41141;-60
2022/09/18 12:29:32;;;;;;;2.40;1.20;;;;;19.80;96637.20;;;;111128;1250;41320;-60
2022/09/18 12:32:21;;;;;;;2.30;1.20;;;;;20.92;96631.80;;;;111018;1247;41144;-60
2022/09/18 12:34:50;;;;;;;1.00;1.00;;;;;21.70;96643.20;;;;110735;1250;41876;-60
2022/09/18 12:37:24;;;;;;;2.10;1.00;;;;;22.58;96632.60;;;;110850;1249;42475;-59
2022/09/18 12:40:14;;;;;;;3.00;1.20;;;;;22.74;96640.00;;;;111019;1247;41636;-60
2022/09/18 12:43:06;;;;;;;;;;;;;23.02;96638.20;;;;110923;1250;41166;-60
2022/09/18 12:45:44;;;;;;;2.60;1.10;;;;;23.26;96638.40;;;;110993;1247;42522;-60
2022/09/18 12:48:18;;;;;;;1.90;1.00;;;;;23.58;96635.80;;;;110943;1247;41173;-59
2022/09/18 12:51:13;;;;;;;1.90;1.10;;;;;24.26;96639.80;;;;111078;1248;41443;-59
2022/09/18 12:54:11;;;;;;;1.10;1.00;;;;;24.64;96641.60;;;;111060;1248;41891;-59
2022/09/18 12:57:05;;;;;;;3.60;1.10;;;;;24.68;96646.60;;;;110644;1250;41166;-60
2022/09/18 12:59:53;;;;;;;2.20;1.10;;;;;24.76;96640.20;;;;111105;1247;41983;-59
2022/09/18 13:02:37;;;;;;;1.70;0.80;;;;;24.58;96643.80;;;;111016;1249;41440;-59
2022/09/18 13:05:38;;;;;;;3.70;1.10;;;;;23.74;96651.60;;;;110926;1250;41603;-59